sensor_id;sensor_type;location;lat;lon;timestamp;P1;durP1;ratioP1;P2;durP2;ratioP2
56114;SDS011;41988;53.020;6.576;2023-05-07T00:01:38;24.88;;;17.35;;
56114;SDS011;41988;53.020;6.576;2023-05-07T00:04:22;26.25;;;17.38;;
56114;SDS011;41988;53.020;6.576;2023-05-07T00:07:10;32.20;;;18.58;;
56114;SDS011;41988;53.020;6.576;2023-05-07T00:09:54;28.58;;;19.00;;
56114;SDS011;41988;53.020;6.576;2023-05-07T00:12:39;27.55;;;17.70;;
56114;SDS011;41988;53.020;6.576;2023-05-07T00:15:24;30.55;;;18.30;;
56114;SDS011;41988;53.020;6.576;2023-05-07T00:18:09;28.85;;;18.77;;
56114;SDS011;41988;53.020;6.576;2023-05-07T00:20:53;34.83;;;19.02;;
56114;SDS011;41988;53.020;6.576;2023-05-07T00:23:38;30.02;;;18.80;;
56114;SDS011;41988;53.020;6.576;2023-05-07T00:26:22;27.63;;;18.23;;
56114;SDS011;41988;53.020;6.576;2023-05-07T00:29:07;30.55;;;19.42;;
56114;SDS011;41988;53.020;6.576;2023-05-07T00:31:51;32.13;;;19.02;;
56114;SDS011;41988;53.020;6.576;2023-05-07T00:34:38;33.85;;;19.55;;
56114;SDS011;41988;53.020;6.576;2023-05-07T00:37:23;31.75;;;19.42;;
56114;SDS011;41988;53.020;6.576;2023-05-07T00:40:07;29.40;;;20.05;;
56114;SDS011;41988;53.020;6.576;2023-05-07T00:42:52;30.63;;;20.95;;
56114;SDS011;41988;53.020;6.576;2023-05-07T00:45:41;33.35;;;21.13;;
56114;SDS011;41988;53.020;6.576;2023-05-07T00:48:26;32.88;;;20.73;;
56114;SDS011;41988;53.020;6.576;2023-05-07T00:51:10;34.03;;;20.85;;
56114;SDS011;41988;53.020;6.576;2023-05-07T00:53:55;34.28;;;19.63;;
56114;SDS011;41988;53.020;6.576;2023-05-07T00:56:40;34.33;;;20.40;;
56114;SDS011;41988;53.020;6.576;2023-05-07T00:59:25;28.73;;;20.80;;
56114;SDS011;41988;53.020;6.576;2023-05-07T01:02:10;32.35;;;20.88;;
56114;SDS011;41988;53.020;6.576;2023-05-07T01:04:55;32.95;;;21.23;;
56114;SDS011;41988;53.020;6.576;2023-05-07T01:07:40;32.63;;;21.38;;
56114;SDS011;41988;53.020;6.576;2023-05-07T01:10:26;38.75;;;21.42;;
56114;SDS011;41988;53.020;6.576;2023-05-07T01:13:14;33.25;;;21.67;;
56114;SDS011;41988;53.020;6.576;2023-05-07T01:15:58;38.03;;;21.83;;
56114;SDS011;41988;53.020;6.576;2023-05-07T01:18:43;32.28;;;21.60;;
56114;SDS011;41988;53.020;6.576;2023-05-07T01:21:34;43.22;;;22.55;;
56114;SDS011;41988;53.020;6.576;2023-05-07T01:24:21;35.13;;;21.55;;
56114;SDS011;41988;53.020;6.576;2023-05-07T01:27:06;36.85;;;22.55;;
56114;SDS011;41988;53.020;6.576;2023-05-07T01:29:50;34.38;;;22.33;;
56114;SDS011;41988;53.020;6.576;2023-05-07T01:35:46;35.88;;;21.27;;
56114;SDS011;41988;53.020;6.576;2023-05-07T01:38:31;32.88;;;21.83;;
56114;SDS011;41988;53.020;6.576;2023-05-07T01:41:17;33.90;;;21.42;;
56114;SDS011;41988;53.020;6.576;2023-05-07T01:44:03;32.30;;;21.02;;
56114;SDS011;41988;53.020;6.576;2023-05-07T01:46:48;43.17;;;24.67;;
56114;SDS011;41988;53.020;6.576;2023-05-07T01:49:34;32.88;;;22.92;;
56114;SDS011;41988;53.020;6.576;2023-05-07T01:52:19;36.08;;;23.20;;
56114;SDS011;41988;53.020;6.576;2023-05-07T01:55:04;37.80;;;23.90;;
56114;SDS011;41988;53.020;6.576;2023-05-07T01:57:51;37.20;;;24.73;;
56114;SDS011;41988;53.020;6.576;2023-05-07T02:00:36;45.70;;;25.20;;
56114;SDS011;41988;53.020;6.576;2023-05-07T02:03:20;38.30;;;23.83;;
56114;SDS011;41988;53.020;6.576;2023-05-07T02:06:05;38.00;;;24.98;;
56114;SDS011;41988;53.020;6.576;2023-05-07T02:08:50;39.40;;;23.58;;
56114;SDS011;41988;53.020;6.576;2023-05-07T02:11:35;38.33;;;24.17;;
56114;SDS011;41988;53.020;6.576;2023-05-07T02:14:20;44.53;;;25.63;;
56114;SDS011;41988;53.020;6.576;2023-05-07T02:17:04;34.97;;;23.08;;
56114;SDS011;41988;53.020;6.576;2023-05-07T02:19:49;38.72;;;24.08;;
56114;SDS011;41988;53.020;6.576;2023-05-07T02:22:34;39.25;;;25.13;;
56114;SDS011;41988;53.020;6.576;2023-05-07T02:25:18;42.30;;;24.80;;
56114;SDS011;41988;53.020;6.576;2023-05-07T02:28:03;38.40;;;25.08;;
56114;SDS011;41988;53.020;6.576;2023-05-07T02:30:47;42.13;;;25.77;;
56114;SDS011;41988;53.020;6.576;2023-05-07T02:33:32;37.70;;;24.13;;
56114;SDS011;41988;53.020;6.576;2023-05-07T02:36:18;40.80;;;25.33;;
56114;SDS011;41988;53.020;6.576;2023-05-07T02:39:03;43.63;;;25.45;;
56114;SDS011;41988;53.020;6.576;2023-05-07T02:41:48;39.58;;;26.48;;
56114;SDS011;41988;53.020;6.576;2023-05-07T02:44:35;44.17;;;27.05;;
56114;SDS011;41988;53.020;6.576;2023-05-07T02:47:19;46.35;;;27.60;;
56114;SDS011;41988;53.020;6.576;2023-05-07T02:50:04;50.33;;;27.80;;
56114;SDS011;41988;53.020;6.576;2023-05-07T02:52:49;52.25;;;29.13;;
56114;SDS011;41988;53.020;6.576;2023-05-07T02:55:33;50.97;;;29.33;;
56114;SDS011;41988;53.020;6.576;2023-05-07T02:58:18;53.85;;;29.17;;
56114;SDS011;41988;53.020;6.576;2023-05-07T03:01:03;47.97;;;27.95;;
56114;SDS011;41988;53.020;6.576;2023-05-07T03:03:47;47.83;;;26.45;;
56114;SDS011;41988;53.020;6.576;2023-05-07T03:06:34;50.00;;;29.70;;
56114;SDS011;41988;53.020;6.576;2023-05-07T03:09:19;52.00;;;29.50;;
56114;SDS011;41988;53.020;6.576;2023-05-07T03:12:04;52.85;;;29.35;;
56114;SDS011;41988;53.020;6.576;2023-05-07T03:14:49;52.30;;;29.35;;
56114;SDS011;41988;53.020;6.576;2023-05-07T03:17:34;49.95;;;30.30;;
56114;SDS011;41988;53.020;6.576;2023-05-07T03:20:18;52.05;;;30.98;;
56114;SDS011;41988;53.020;6.576;2023-05-07T03:23:03;53.60;;;30.88;;
56114;SDS011;41988;53.020;6.576;2023-05-07T03:25:48;56.30;;;31.73;;
56114;SDS011;41988;53.020;6.576;2023-05-07T03:28:35;58.72;;;29.73;;
56114;SDS011;41988;53.020;6.576;2023-05-07T03:31:20;55.17;;;30.35;;
56114;SDS011;41988;53.020;6.576;2023-05-07T03:34:04;58.75;;;31.15;;
56114;SDS011;41988;53.020;6.576;2023-05-07T03:36:49;56.15;;;31.73;;
56114;SDS011;41988;53.020;6.576;2023-05-07T03:39:33;57.03;;;30.63;;
56114;SDS011;41988;53.020;6.576;2023-05-07T03:42:19;56.60;;;31.20;;
56114;SDS011;41988;53.020;6.576;2023-05-07T03:45:04;56.58;;;31.60;;
56114;SDS011;41988;53.020;6.576;2023-05-07T03:47:49;59.38;;;32.70;;
56114;SDS011;41988;53.020;6.576;2023-05-07T03:50:36;56.60;;;34.05;;
56114;SDS011;41988;53.020;6.576;2023-05-07T03:53:20;57.17;;;31.23;;
56114;SDS011;41988;53.020;6.576;2023-05-07T03:56:05;63.17;;;32.42;;
56114;SDS011;41988;53.020;6.576;2023-05-07T03:58:49;60.95;;;31.50;;
56114;SDS011;41988;53.020;6.576;2023-05-07T04:01:34;61.60;;;30.83;;
56114;SDS011;41988;53.020;6.576;2023-05-07T04:04:21;59.13;;;30.95;;
56114;SDS011;41988;53.020;6.576;2023-05-07T04:07:05;53.35;;;30.20;;
56114;SDS011;41988;53.020;6.576;2023-05-07T04:09:50;57.25;;;31.90;;
56114;SDS011;41988;53.020;6.576;2023-05-07T04:12:35;57.30;;;32.42;;
56114;SDS011;41988;53.020;6.576;2023-05-07T04:15:19;54.08;;;31.25;;
56114;SDS011;41988;53.020;6.576;2023-05-07T04:18:04;54.55;;;31.10;;
56114;SDS011;41988;53.020;6.576;2023-05-07T04:20:48;56.80;;;30.60;;
56114;SDS011;41988;53.020;6.576;2023-05-07T04:23:36;57.47;;;32.00;;
56114;SDS011;41988;53.020;6.576;2023-05-07T04:26:20;52.38;;;29.85;;
56114;SDS011;41988;53.020;6.576;2023-05-07T04:29:04;52.30;;;30.70;;
56114;SDS011;41988;53.020;6.576;2023-05-07T04:31:49;51.53;;;29.58;;
56114;SDS011;41988;53.020;6.576;2023-05-07T04:34:34;59.30;;;30.83;;
56114;SDS011;41988;53.020;6.576;2023-05-07T04:37:18;51.35;;;29.30;;
56114;SDS011;41988;53.020;6.576;2023-05-07T04:40:02;51.83;;;29.05;;
56114;SDS011;41988;53.020;6.576;2023-05-07T04:42:47;53.17;;;29.45;;
56114;SDS011;41988;53.020;6.576;2023-05-07T04:45:32;54.13;;;30.95;;
56114;SDS011;41988;53.020;6.576;2023-05-07T04:48:17;51.80;;;28.25;;
56114;SDS011;41988;53.020;6.576;2023-05-07T04:51:03;49.88;;;29.55;;
56114;SDS011;41988;53.020;6.576;2023-05-07T04:53:48;47.80;;;27.67;;
56114;SDS011;41988;53.020;6.576;2023-05-07T04:56:33;47.70;;;28.48;;
56114;SDS011;41988;53.020;6.576;2023-05-07T04:59:17;48.88;;;28.00;;
56114;SDS011;41988;53.020;6.576;2023-05-07T05:02:02;48.42;;;29.08;;
56114;SDS011;41988;53.020;6.576;2023-05-07T05:04:47;44.40;;;27.08;;
56114;SDS011;41988;53.020;6.576;2023-05-07T05:07:32;45.22;;;29.55;;
56114;SDS011;41988;53.020;6.576;2023-05-07T05:10:16;45.33;;;27.38;;
56114;SDS011;41988;53.020;6.576;2023-05-07T05:13:01;48.60;;;28.98;;
56114;SDS011;41988;53.020;6.576;2023-05-07T05:15:46;46.47;;;27.42;;
56114;SDS011;41988;53.020;6.576;2023-05-07T05:18:31;42.10;;;26.85;;
56114;SDS011;41988;53.020;6.576;2023-05-07T05:21:15;43.10;;;26.15;;
56114;SDS011;41988;53.020;6.576;2023-05-07T05:24:00;44.08;;;26.05;;
56114;SDS011;41988;53.020;6.576;2023-05-07T05:26:44;40.38;;;24.60;;
56114;SDS011;41988;53.020;6.576;2023-05-07T05:29:29;42.85;;;26.38;;
56114;SDS011;41988;53.020;6.576;2023-05-07T05:32:15;39.70;;;24.75;;
56114;SDS011;41988;53.020;6.576;2023-05-07T05:34:59;39.65;;;23.35;;
56114;SDS011;41988;53.020;6.576;2023-05-07T05:37:44;43.05;;;27.08;;
56114;SDS011;41988;53.020;6.576;2023-05-07T05:40:28;39.22;;;25.33;;
56114;SDS011;41988;53.020;6.576;2023-05-07T05:43:14;39.60;;;23.42;;
56114;SDS011;41988;53.020;6.576;2023-05-07T05:45:58;39.17;;;24.65;;
56114;SDS011;41988;53.020;6.576;2023-05-07T05:48:44;36.38;;;22.92;;
56114;SDS011;41988;53.020;6.576;2023-05-07T05:51:28;37.10;;;22.85;;
56114;SDS011;41988;53.020;6.576;2023-05-07T05:54:12;37.72;;;23.17;;
56114;SDS011;41988;53.020;6.576;2023-05-07T05:56:57;38.47;;;24.40;;
56114;SDS011;41988;53.020;6.576;2023-05-07T05:59:42;41.05;;;24.45;;
56114;SDS011;41988;53.020;6.576;2023-05-07T06:02:26;38.28;;;23.05;;
56114;SDS011;41988;53.020;6.576;2023-05-07T06:05:11;35.70;;;22.50;;
56114;SDS011;41988;53.020;6.576;2023-05-07T06:07:55;37.80;;;24.65;;
56114;SDS011;41988;53.020;6.576;2023-05-07T06:10:40;34.60;;;23.52;;
56114;SDS011;41988;53.020;6.576;2023-05-07T06:13:24;33.70;;;22.80;;
56114;SDS011;41988;53.020;6.576;2023-05-07T06:16:09;38.38;;;23.27;;
56114;SDS011;41988;53.020;6.576;2023-05-07T06:18:54;33.17;;;21.65;;
56114;SDS011;41988;53.020;6.576;2023-05-07T06:21:38;34.22;;;23.05;;
56114;SDS011;41988;53.020;6.576;2023-05-07T06:24:24;31.70;;;22.10;;
56114;SDS011;41988;53.020;6.576;2023-05-07T06:27:09;31.13;;;21.48;;
56114;SDS011;41988;53.020;6.576;2023-05-07T06:29:53;33.40;;;21.60;;
56114;SDS011;41988;53.020;6.576;2023-05-07T06:32:39;32.63;;;21.98;;
56114;SDS011;41988;53.020;6.576;2023-05-07T06:35:24;33.95;;;22.17;;
56114;SDS011;41988;53.020;6.576;2023-05-07T06:38:09;37.92;;;24.20;;
56114;SDS011;41988;53.020;6.576;2023-05-07T06:40:54;33.47;;;21.63;;
56114;SDS011;41988;53.020;6.576;2023-05-07T06:43:40;32.30;;;22.05;;
56114;SDS011;41988;53.020;6.576;2023-05-07T06:46:25;34.08;;;22.10;;
56114;SDS011;41988;53.020;6.576;2023-05-07T06:49:09;33.67;;;21.80;;
56114;SDS011;41988;53.020;6.576;2023-05-07T06:51:54;31.92;;;20.02;;
56114;SDS011;41988;53.020;6.576;2023-05-07T06:54:39;34.97;;;23.10;;
56114;SDS011;41988;53.020;6.576;2023-05-07T06:57:24;32.17;;;21.45;;
56114;SDS011;41988;53.020;6.576;2023-05-07T07:00:08;36.50;;;21.73;;
56114;SDS011;41988;53.020;6.576;2023-05-07T07:02:54;32.67;;;22.38;;
56114;SDS011;41988;53.020;6.576;2023-05-07T07:05:42;31.25;;;20.88;;
56114;SDS011;41988;53.020;6.576;2023-05-07T07:08:27;31.40;;;20.88;;
56114;SDS011;41988;53.020;6.576;2023-05-07T07:11:11;32.95;;;21.67;;
56114;SDS011;41988;53.020;6.576;2023-05-07T07:13:55;33.45;;;22.98;;
56114;SDS011;41988;53.020;6.576;2023-05-07T07:16:40;32.60;;;21.40;;
56114;SDS011;41988;53.020;6.576;2023-05-07T07:19:25;30.20;;;20.65;;
56114;SDS011;41988;53.020;6.576;2023-05-07T07:22:09;34.50;;;22.27;;
56114;SDS011;41988;53.020;6.576;2023-05-07T07:24:54;31.77;;;22.25;;
56114;SDS011;41988;53.020;6.576;2023-05-07T07:27:39;32.55;;;20.95;;
56114;SDS011;41988;53.020;6.576;2023-05-07T07:30:24;33.38;;;22.35;;
56114;SDS011;41988;53.020;6.576;2023-05-07T07:33:09;32.15;;;21.48;;
56114;SDS011;41988;53.020;6.576;2023-05-07T07:35:55;33.65;;;22.42;;
56114;SDS011;41988;53.020;6.576;2023-05-07T07:38:39;37.83;;;24.40;;
56114;SDS011;41988;53.020;6.576;2023-05-07T07:41:24;34.70;;;23.27;;
56114;SDS011;41988;53.020;6.576;2023-05-07T07:44:08;31.80;;;21.25;;
56114;SDS011;41988;53.020;6.576;2023-05-07T07:46:59;36.78;;;22.88;;
56114;SDS011;41988;53.020;6.576;2023-05-07T07:49:43;34.10;;;21.55;;
56114;SDS011;41988;53.020;6.576;2023-05-07T07:52:28;34.70;;;22.48;;
56114;SDS011;41988;53.020;6.576;2023-05-07T07:55:12;37.58;;;23.88;;
56114;SDS011;41988;53.020;6.576;2023-05-07T07:57:57;32.28;;;21.75;;
56114;SDS011;41988;53.020;6.576;2023-05-07T08:00:42;33.38;;;21.85;;
56114;SDS011;41988;53.020;6.576;2023-05-07T08:03:27;33.20;;;21.77;;
56114;SDS011;41988;53.020;6.576;2023-05-07T08:06:16;39.58;;;23.38;;
56114;SDS011;41988;53.020;6.576;2023-05-07T08:09:03;34.45;;;23.33;;
56114;SDS011;41988;53.020;6.576;2023-05-07T08:11:47;32.30;;;21.13;;
56114;SDS011;41988;53.020;6.576;2023-05-07T08:14:32;33.30;;;23.05;;
56114;SDS011;41988;53.020;6.576;2023-05-07T08:17:17;31.25;;;21.55;;
56114;SDS011;41988;53.020;6.576;2023-05-07T08:20:01;33.25;;;22.27;;
56114;SDS011;41988;53.020;6.576;2023-05-07T08:22:46;32.45;;;22.08;;
56114;SDS011;41988;53.020;6.576;2023-05-07T08:25:32;29.60;;;21.48;;
56114;SDS011;41988;53.020;6.576;2023-05-07T08:28:17;32.33;;;23.08;;
56114;SDS011;41988;53.020;6.576;2023-05-07T08:31:02;32.53;;;21.00;;
56114;SDS011;41988;53.020;6.576;2023-05-07T08:33:47;33.38;;;21.92;;
56114;SDS011;41988;53.020;6.576;2023-05-07T08:36:31;32.03;;;22.58;;
56114;SDS011;41988;53.020;6.576;2023-05-07T08:39:16;33.08;;;21.92;;
56114;SDS011;41988;53.020;6.576;2023-05-07T08:42:00;32.15;;;21.95;;
56114;SDS011;41988;53.020;6.576;2023-05-07T08:44:51;30.80;;;21.70;;
56114;SDS011;41988;53.020;6.576;2023-05-07T08:47:43;33.40;;;21.27;;
56114;SDS011;41988;53.020;6.576;2023-05-07T08:50:31;33.08;;;22.15;;
56114;SDS011;41988;53.020;6.576;2023-05-07T08:53:15;30.83;;;20.92;;
56114;SDS011;41988;53.020;6.576;2023-05-07T08:56:00;30.67;;;20.90;;
56114;SDS011;41988;53.020;6.576;2023-05-07T08:58:45;28.45;;;20.00;;
56114;SDS011;41988;53.020;6.576;2023-05-07T09:01:30;30.50;;;20.33;;
56114;SDS011;41988;53.020;6.576;2023-05-07T09:04:14;31.63;;;21.60;;
56114;SDS011;41988;53.020;6.576;2023-05-07T09:06:59;29.30;;;21.02;;
56114;SDS011;41988;53.020;6.576;2023-05-07T09:09:48;29.08;;;20.92;;
56114;SDS011;41988;53.020;6.576;2023-05-07T09:12:33;28.38;;;20.20;;
56114;SDS011;41988;53.020;6.576;2023-05-07T09:15:18;28.85;;;21.17;;
56114;SDS011;41988;53.020;6.576;2023-05-07T09:18:03;26.92;;;20.35;;
56114;SDS011;41988;53.020;6.576;2023-05-07T09:20:47;30.60;;;20.33;;
56114;SDS011;41988;53.020;6.576;2023-05-07T09:23:32;28.77;;;20.27;;
56114;SDS011;41988;53.020;6.576;2023-05-07T09:26:17;26.45;;;18.85;;
56114;SDS011;41988;53.020;6.576;2023-05-07T09:29:01;26.08;;;17.88;;
56114;SDS011;41988;53.020;6.576;2023-05-07T09:31:46;27.45;;;18.70;;
56114;SDS011;41988;53.020;6.576;2023-05-07T09:34:30;29.95;;;18.40;;
56114;SDS011;41988;53.020;6.576;2023-05-07T09:37:15;24.23;;;17.75;;
56114;SDS011;41988;53.020;6.576;2023-05-07T09:40:00;23.02;;;16.65;;
56114;SDS011;41988;53.020;6.576;2023-05-07T09:42:44;24.48;;;17.10;;
56114;SDS011;41988;53.020;6.576;2023-05-07T09:45:30;24.98;;;16.95;;
56114;SDS011;41988;53.020;6.576;2023-05-07T09:48:16;24.92;;;17.25;;
56114;SDS011;41988;53.020;6.576;2023-05-07T09:51:02;23.33;;;16.58;;
56114;SDS011;41988;53.020;6.576;2023-05-07T09:53:47;23.23;;;16.77;;
56114;SDS011;41988;53.020;6.576;2023-05-07T09:56:31;21.50;;;16.38;;
56114;SDS011;41988;53.020;6.576;2023-05-07T09:59:16;22.38;;;16.33;;
56114;SDS011;41988;53.020;6.576;2023-05-07T10:02:01;24.90;;;16.55;;
56114;SDS011;41988;53.020;6.576;2023-05-07T10:04:47;20.95;;;16.08;;
56114;SDS011;41988;53.020;6.576;2023-05-07T10:07:33;24.75;;;17.63;;
56114;SDS011;41988;53.020;6.576;2023-05-07T10:10:18;21.67;;;16.80;;
56114;SDS011;41988;53.020;6.576;2023-05-07T10:13:02;23.52;;;16.63;;
56114;SDS011;41988;53.020;6.576;2023-05-07T10:15:53;23.00;;;17.08;;
56114;SDS011;41988;53.020;6.576;2023-05-07T10:18:40;21.75;;;16.48;;
56114;SDS011;41988;53.020;6.576;2023-05-07T10:21:26;22.05;;;16.83;;
56114;SDS011;41988;53.020;6.576;2023-05-07T10:24:28;22.05;;;16.05;;
56114;SDS011;41988;53.020;6.576;2023-05-07T10:27:14;19.88;;;16.02;;
56114;SDS011;41988;53.020;6.576;2023-05-07T10:32:57;22.50;;;16.15;;
56114;SDS011;41988;53.020;6.576;2023-05-07T10:35:49;22.48;;;16.85;;
56114;SDS011;41988;53.020;6.576;2023-05-07T10:38:34;20.55;;;15.45;;
56114;SDS011;41988;53.020;6.576;2023-05-07T10:41:19;21.45;;;15.35;;
56114;SDS011;41988;53.020;6.576;2023-05-07T10:44:04;18.95;;;16.35;;
56114;SDS011;41988;53.020;6.576;2023-05-07T10:47:11;21.48;;;15.95;;
56114;SDS011;41988;53.020;6.576;2023-05-07T10:52:39;21.67;;;14.77;;
56114;SDS011;41988;53.020;6.576;2023-05-07T10:55:23;18.52;;;14.57;;
56114;SDS011;41988;53.020;6.576;2023-05-07T10:58:29;19.35;;;15.00;;
56114;SDS011;41988;53.020;6.576;2023-05-07T11:01:17;22.45;;;15.32;;
56114;SDS011;41988;53.020;6.576;2023-05-07T11:04:21;18.23;;;13.98;;
56114;SDS011;41988;53.020;6.576;2023-05-07T11:07:29;20.92;;;15.25;;
56114;SDS011;41988;53.020;6.576;2023-05-07T11:10:14;19.65;;;14.43;;
56114;SDS011;41988;53.020;6.576;2023-05-07T11:12:58;17.50;;;14.30;;
56114;SDS011;41988;53.020;6.576;2023-05-07T11:15:47;15.20;;;13.43;;
56114;SDS011;41988;53.020;6.576;2023-05-07T11:18:45;19.38;;;15.00;;
56114;SDS011;41988;53.020;6.576;2023-05-07T11:24:21;16.75;;;13.45;;
56114;SDS011;41988;53.020;6.576;2023-05-07T11:27:05;18.00;;;13.63;;
56114;SDS011;41988;53.020;6.576;2023-05-07T11:29:50;17.92;;;14.63;;
56114;SDS011;41988;53.020;6.576;2023-05-07T11:32:35;17.50;;;13.73;;
56114;SDS011;41988;53.020;6.576;2023-05-07T11:35:19;17.88;;;14.23;;
56114;SDS011;41988;53.020;6.576;2023-05-07T11:38:07;16.65;;;14.80;;
56114;SDS011;41988;53.020;6.576;2023-05-07T11:40:52;20.63;;;13.27;;
56114;SDS011;41988;53.020;6.576;2023-05-07T11:43:55;19.13;;;13.98;;
56114;SDS011;41988;53.020;6.576;2023-05-07T11:46:42;18.35;;;14.30;;
56114;SDS011;41988;53.020;6.576;2023-05-07T11:49:27;16.95;;;13.88;;
56114;SDS011;41988;53.020;6.576;2023-05-07T11:52:13;17.90;;;14.45;;
56114;SDS011;41988;53.020;6.576;2023-05-07T11:54:59;17.67;;;14.15;;
56114;SDS011;41988;53.020;6.576;2023-05-07T11:57:43;18.33;;;13.75;;
56114;SDS011;41988;53.020;6.576;2023-05-07T12:00:28;18.23;;;14.68;;
56114;SDS011;41988;53.020;6.576;2023-05-07T12:03:13;17.58;;;13.82;;
56114;SDS011;41988;53.020;6.576;2023-05-07T12:05:59;17.80;;;14.00;;
56114;SDS011;41988;53.020;6.576;2023-05-07T12:08:44;15.90;;;14.20;;
56114;SDS011;41988;53.020;6.576;2023-05-07T12:11:29;16.70;;;13.63;;
56114;SDS011;41988;53.020;6.576;2023-05-07T12:14:13;18.67;;;13.98;;
56114;SDS011;41988;53.020;6.576;2023-05-07T12:17:00;16.00;;;12.98;;
56114;SDS011;41988;53.020;6.576;2023-05-07T12:19:48;15.05;;;12.35;;
56114;SDS011;41988;53.020;6.576;2023-05-07T12:22:33;16.67;;;13.00;;
56114;SDS011;41988;53.020;6.576;2023-05-07T12:25:19;16.33;;;13.95;;
56114;SDS011;41988;53.020;6.576;2023-05-07T12:28:04;17.23;;;13.82;;
56114;SDS011;41988;53.020;6.576;2023-05-07T12:30:49;15.02;;;12.50;;
56114;SDS011;41988;53.020;6.576;2023-05-07T12:33:34;17.27;;;13.63;;
56114;SDS011;41988;53.020;6.576;2023-05-07T12:36:19;14.80;;;12.35;;
56114;SDS011;41988;53.020;6.576;2023-05-07T12:39:05;15.63;;;13.52;;
56114;SDS011;41988;53.020;6.576;2023-05-07T12:41:54;16.83;;;13.77;;
56114;SDS011;41988;53.020;6.576;2023-05-07T12:44:39;17.92;;;14.27;;
56114;SDS011;41988;53.020;6.576;2023-05-07T12:47:24;16.20;;;13.98;;
56114;SDS011;41988;53.020;6.576;2023-05-07T12:50:08;19.23;;;13.90;;
56114;SDS011;41988;53.020;6.576;2023-05-07T12:52:53;16.55;;;13.82;;
56114;SDS011;41988;53.020;6.576;2023-05-07T12:58:31;17.38;;;14.48;;
56114;SDS011;41988;53.020;6.576;2023-05-07T13:01:17;15.38;;;12.73;;
56114;SDS011;41988;53.020;6.576;2023-05-07T13:04:03;15.68;;;13.52;;
56114;SDS011;41988;53.020;6.576;2023-05-07T13:06:49;17.33;;;13.95;;
56114;SDS011;41988;53.020;6.576;2023-05-07T13:09:33;19.27;;;14.13;;
56114;SDS011;41988;53.020;6.576;2023-05-07T13:12:20;15.00;;;13.07;;
56114;SDS011;41988;53.020;6.576;2023-05-07T13:15:05;15.23;;;13.48;;
56114;SDS011;41988;53.020;6.576;2023-05-07T13:17:50;15.75;;;13.30;;
56114;SDS011;41988;53.020;6.576;2023-05-07T13:20:34;15.00;;;12.63;;
56114;SDS011;41988;53.020;6.576;2023-05-07T13:23:19;16.30;;;13.65;;
56114;SDS011;41988;53.020;6.576;2023-05-07T13:26:04;16.70;;;13.75;;
56114;SDS011;41988;53.020;6.576;2023-05-07T13:28:48;13.88;;;12.40;;
56114;SDS011;41988;53.020;6.576;2023-05-07T13:31:33;16.58;;;13.52;;
56114;SDS011;41988;53.020;6.576;2023-05-07T13:34:19;13.45;;;12.05;;
56114;SDS011;41988;53.020;6.576;2023-05-07T13:37:03;15.70;;;12.23;;
56114;SDS011;41988;53.020;6.576;2023-05-07T13:39:48;15.07;;;13.15;;
56114;SDS011;41988;53.020;6.576;2023-05-07T13:42:33;15.80;;;13.00;;
56114;SDS011;41988;53.020;6.576;2023-05-07T13:45:18;16.88;;;13.73;;
56114;SDS011;41988;53.020;6.576;2023-05-07T13:48:03;13.80;;;11.80;;
56114;SDS011;41988;53.020;6.576;2023-05-07T13:50:48;14.32;;;11.43;;
56114;SDS011;41988;53.020;6.576;2023-05-07T13:53:32;15.30;;;12.02;;
56114;SDS011;41988;53.020;6.576;2023-05-07T13:56:17;13.43;;;10.68;;
56114;SDS011;41988;53.020;6.576;2023-05-07T13:59:02;15.25;;;10.57;;
56114;SDS011;41988;53.020;6.576;2023-05-07T14:01:46;12.68;;;10.88;;
56114;SDS011;41988;53.020;6.576;2023-05-07T14:04:31;12.85;;;9.90;;
56114;SDS011;41988;53.020;6.576;2023-05-07T14:07:15;12.80;;;11.18;;
56114;SDS011;41988;53.020;6.576;2023-05-07T14:10:00;11.27;;;10.00;;
56114;SDS011;41988;53.020;6.576;2023-05-07T14:12:45;11.30;;;10.00;;
56114;SDS011;41988;53.020;6.576;2023-05-07T14:15:30;16.40;;;10.32;;
56114;SDS011;41988;53.020;6.576;2023-05-07T14:18:16;14.18;;;10.10;;
56114;SDS011;41988;53.020;6.576;2023-05-07T14:21:00;10.65;;;9.13;;
56114;SDS011;41988;53.020;6.576;2023-05-07T14:23:45;13.77;;;9.50;;
56114;SDS011;41988;53.020;6.576;2023-05-07T14:26:30;11.32;;;9.40;;
56114;SDS011;41988;53.020;6.576;2023-05-07T14:29:18;11.32;;;9.30;;
56114;SDS011;41988;53.020;6.576;2023-05-07T14:32:02;10.63;;;9.30;;
56114;SDS011;41988;53.020;6.576;2023-05-07T14:34:47;11.82;;;9.80;;
56114;SDS011;41988;53.020;6.576;2023-05-07T14:37:32;10.90;;;9.57;;
56114;SDS011;41988;53.020;6.576;2023-05-07T14:40:16;10.27;;;8.73;;
56114;SDS011;41988;53.020;6.576;2023-05-07T14:43:01;10.52;;;9.38;;
56114;SDS011;41988;53.020;6.576;2023-05-07T14:45:46;11.30;;;9.20;;
56114;SDS011;41988;53.020;6.576;2023-05-07T14:48:30;10.52;;;9.35;;
56114;SDS011;41988;53.020;6.576;2023-05-07T14:51:15;9.85;;;8.80;;
56114;SDS011;41988;53.020;6.576;2023-05-07T14:53:59;10.10;;;8.98;;
56114;SDS011;41988;53.020;6.576;2023-05-07T14:56:45;10.32;;;8.98;;
56114;SDS011;41988;53.020;6.576;2023-05-07T14:59:29;12.10;;;9.57;;
56114;SDS011;41988;53.020;6.576;2023-05-07T15:02:14;11.73;;;9.23;;
56114;SDS011;41988;53.020;6.576;2023-05-07T15:04:59;12.05;;;9.88;;
56114;SDS011;41988;53.020;6.576;2023-05-07T15:07:44;11.65;;;8.88;;
56114;SDS011;41988;53.020;6.576;2023-05-07T15:10:30;12.30;;;10.15;;
56114;SDS011;41988;53.020;6.576;2023-05-07T15:13:14;11.07;;;9.57;;
56114;SDS011;41988;53.020;6.576;2023-05-07T15:15:59;14.75;;;10.70;;
56114;SDS011;41988;53.020;6.576;2023-05-07T15:18:44;10.48;;;9.38;;
56114;SDS011;41988;53.020;6.576;2023-05-07T15:21:28;12.23;;;9.23;;
56114;SDS011;41988;53.020;6.576;2023-05-07T15:24:14;11.43;;;9.80;;
56114;SDS011;41988;53.020;6.576;2023-05-07T15:26:59;12.77;;;9.73;;
56114;SDS011;41988;53.020;6.576;2023-05-07T15:29:46;11.15;;;9.98;;
56114;SDS011;41988;53.020;6.576;2023-05-07T15:32:31;11.18;;;10.05;;
56114;SDS011;41988;53.020;6.576;2023-05-07T15:35:15;23.60;;;14.48;;
56114;SDS011;41988;53.020;6.576;2023-05-07T15:38:05;12.75;;;11.07;;
56114;SDS011;41988;53.020;6.576;2023-05-07T15:40:55;14.43;;;12.43;;
56114;SDS011;41988;53.020;6.576;2023-05-07T15:43:43;12.93;;;11.45;;
56114;SDS011;41988;53.020;6.576;2023-05-07T15:46:29;13.05;;;11.30;;
56114;SDS011;41988;53.020;6.576;2023-05-07T15:49:13;15.50;;;11.85;;
56114;SDS011;41988;53.020;6.576;2023-05-07T15:51:58;14.60;;;11.35;;
56114;SDS011;41988;53.020;6.576;2023-05-07T15:54:42;15.70;;;11.38;;
56114;SDS011;41988;53.020;6.576;2023-05-07T15:57:27;14.80;;;11.90;;
56114;SDS011;41988;53.020;6.576;2023-05-07T16:00:12;13.25;;;11.75;;
56114;SDS011;41988;53.020;6.576;2023-05-07T16:02:58;12.48;;;11.00;;
56114;SDS011;41988;53.020;6.576;2023-05-07T16:05:43;12.88;;;11.45;;
56114;SDS011;41988;53.020;6.576;2023-05-07T16:08:28;14.20;;;11.73;;
56114;SDS011;41988;53.020;6.576;2023-05-07T16:11:12;19.90;;;15.43;;
56114;SDS011;41988;53.020;6.576;2023-05-07T16:13:57;15.70;;;11.90;;
56114;SDS011;41988;53.020;6.576;2023-05-07T16:16:43;13.98;;;12.38;;
56114;SDS011;41988;53.020;6.576;2023-05-07T16:19:29;16.27;;;11.13;;
56114;SDS011;41988;53.020;6.576;2023-05-07T16:22:13;14.02;;;11.40;;
56114;SDS011;41988;53.020;6.576;2023-05-07T16:24:58;13.80;;;10.68;;